Time;durP1;ratioP1;P1;durP2;ratioP2;P2;SDS_P1;SDS_P2;PMS_P1;PMS_P2;Temp;Humidity;BMP_temperature;BMP_pressure;BME280_temperature;BME280_humidity;BME280_pressure;Samples;Min_cycle;Max_cycle;Signal;HPM_P1;HPM_P2
2022/11/27 00:00:58;;;;;;;;;;;6.10;99.90;;;;;;5082708;28;20396;-92
2022/11/27 00:03:23;;;;;;;;;;;5.10;99.90;;;;;;5058903;28;19968;-93
2022/11/27 00:05:53;;;;;;;;;;;5.60;99.90;;;;;;5047464;28;19932;-93
2022/11/27 00:08:30;;;;;;;;;;;5.00;99.90;;;;;;5070216;28;19974;-93
2022/11/27 00:11:02;;;;;;;;;;;4.30;99.90;;;;;;5056316;28;19975;-92
2022/11/27 00:13:28;;;;;;;;;;;6.10;99.90;;;;;;5049116;28;20287;-94
2022/11/27 00:15:55;;;;;;;;;;;5.00;99.90;;;;;;5058454;28;19928;-93
2022/11/27 00:18:21;;;;;;;;;;;5.90;99.90;;;;;;5053601;28;19995;-92
2022/11/27 00:20:47;;;;;;;;;;;5.00;99.90;;;;;;5048651;28;19924;-92
2022/11/27 00:23:12;;;;;;;;;;;5.70;99.90;;;;;;5062073;28;19924;-92
2022/11/27 00:25:38;;;;;;;;;;;5.10;99.90;;;;;;5046508;28;20011;-92
2022/11/27 00:28:04;;;;;;;;;;;5.20;99.90;;;;;;5063164;28;19924;-92
2022/11/27 00:30:32;;;;;;;;;;;5.00;99.90;;;;;;5045609;28;19957;-92
2022/11/27 00:32:57;;;;;;;;;;;5.00;99.90;;;;;;5053411;28;19981;-91
2022/11/27 00:35:23;;;;;;;;;;;4.90;99.90;;;;;;5051501;28;20026;-91
2022/11/27 00:37:49;;;;;;;;;;;5.00;99.90;;;;;;5056473;28;19928;-92
2022/11/27 00:40:14;;;;;;;;;;;5.10;99.90;;;;;;5062013;28;20023;-92
2022/11/27 00:42:40;;;;;;;;;;;4.90;99.90;;;;;;5047282;28;19993;-93
2022/11/27 00:45:06;;;;;;;;;;;4.90;99.90;;;;;;5059119;28;19924;-91
2022/11/27 00:47:32;;;;;;;;;;;4.90;99.90;;;;;;5084480;28;19931;-92
2022/11/27 00:49:57;;;;;;;;;;;5.80;99.90;;;;;;5069197;28;19951;-92
2022/11/27 00:52:25;;;;;;;;;;;4.80;99.90;;;;;;5062120;28;19940;-92
2022/11/27 00:54:51;;;;;;;;;;;3.60;99.90;;;;;;5073789;28;19924;-92
2022/11/27 00:57:17;;;;;;;;;;;4.60;99.90;;;;;;5061195;28;19930;-91
2022/11/27 00:59:43;;;;;;;;;;;4.90;99.90;;;;;;5056455;28;19968;-92
2022/11/27 01:02:08;;;;;;;;;;;4.80;99.90;;;;;;5060301;28;19947;-90
2022/11/27 01:04:34;;;;;;;;;;;4.80;99.90;;;;;;5082882;28;19924;-91
2022/11/27 01:07:02;;;;;;;;;;;4.90;99.90;;;;;;5078432;28;19935;-92
2022/11/27 01:09:30;;;;;;;;;;;5.80;99.90;;;;;;5054909;28;19935;-91
2022/11/27 01:11:59;;;;;;;;;;;4.80;99.90;;;;;;5078309;28;20375;-89
2022/11/27 01:14:27;;;;;;;;;;;5.90;99.90;;;;;;5077825;28;19931;-89
2022/11/27 01:16:55;;;;;;;;;;;4.90;99.90;;;;;;5077306;28;19926;-89
2022/11/27 01:19:21;;;;;;;;;;;4.80;99.90;;;;;;5095092;28;19924;-89
2022/11/27 01:21:47;;;;;;;;;;;4.90;99.90;;;;;;5077367;28;20007;-89
2022/11/27 01:24:18;;;;;;;;;;;4.70;99.90;;;;;;5077780;28;19953;-89
2022/11/27 01:26:48;;;;;;;;;;;4.80;99.90;;;;;;5077621;28;19924;-89
2022/11/27 01:29:14;;;;;;;;;;;5.40;99.90;;;;;;5094083;28;19924;-88
2022/11/27 01:31:45;;;;;;;;;;;4.70;99.90;;;;;;5094237;28;19924;-89
2022/11/27 01:34:15;;;;;;;;;;;3.60;99.90;;;;;;5077290;28;20064;-89
2022/11/27 01:36:41;;;;;;;;;;;4.70;99.90;;;;;;5077884;28;20019;-88
2022/11/27 01:39:07;;;;;;;;;;;4.70;99.90;;;;;;5077231;28;19975;-89
2022/11/27 01:41:38;;;;;;;;;;;5.70;99.90;;;;;;5076340;28;19947;-88
2022/11/27 01:44:22;;;;;;;;;;;4.70;99.90;;;;;;5094268;28;19986;-89
2022/11/27 01:46:57;;;;;;;;;;;4.60;99.90;;;;;;5077098;28;19924;-89
2022/11/27 01:49:32;;;;;;;;;;;5.40;99.90;;;;;;5077172;28;19932;-89
2022/11/27 01:52:00;;;;;;;;;;;4.50;99.90;;;;;;5076908;28;19924;-89
2022/11/27 01:54:33;;;;;;;;;;;6.10;99.90;;;;;;5076566;28;19925;-89
2022/11/27 01:57:16;;;;;;;;;;;4.50;99.90;;;;;;5076924;28;19931;-88
2022/11/27 01:59:44;;;;;;;;;;;4.00;99.90;;;;;;5077537;28;20069;-89
2022/11/27 02:02:13;;;;;;;;;;;5.50;99.90;;;;;;5093150;28;19931;-89
2022/11/27 02:04:55;;;;;;;;;;;4.60;99.90;;;;;;5077157;28;20387;-89
2022/11/27 02:07:21;;;;;;;;;;;4.50;99.90;;;;;;5077457;28;19928;-89
2022/11/27 02:09:49;;;;;;;;;;;4.80;99.90;;;;;;5076824;28;20526;-89
2022/11/27 02:12:23;;;;;;;;;;;5.20;99.90;;;;;;5093143;28;20386;-89
2022/11/27 02:15:04;;;;;;;;;;;4.50;99.90;;;;;;5076655;28;20394;-88
2022/11/27 02:17:30;;;;;;;;;;;4.50;99.90;;;;;;5076685;28;19924;-88
2022/11/27 02:20:14;;;;;;;;;;;4.50;99.90;;;;;;5076474;28;19935;-89
2022/11/27 02:22:49;;;;;;;;;;;4.50;99.90;;;;;;5076837;28;20027;-89
2022/11/27 02:25:27;;;;;;;;;;;6.00;99.90;;;;;;5076830;28;20271;-89
2022/11/27 02:28:02;;;;;;;;;;;4.50;99.90;;;;;;5076940;28;19924;-89
2022/11/27 02:30:34;;;;;;;;;;;5.60;99.90;;;;;;5076385;28;19924;-89
2022/11/27 02:33:01;;;;;;;;;;;6.00;99.90;;;;;;5077043;28;19924;-89
2022/11/27 02:35:37;;;;;;;;;;;4.20;99.90;;;;;;5076186;28;19977;-89
2022/11/27 02:38:28;;;;;;;;;;;4.70;99.90;;;;;;5076389;28;20024;-89
2022/11/27 02:41:09;;;;;;;;;;;4.70;99.90;;;;;;5066413;28;19977;-88
2022/11/27 02:43:53;;;;;;;;;;;4.70;99.90;;;;;;5075938;28;19924;-89
2022/11/27 02:46:19;;;;;;;;;;;4.70;99.90;;;;;;5075613;28;19932;-89
2022/11/27 02:48:54;;;;;;;;;;;5.30;99.90;;;;;;5076658;28;19977;-90
2022/11/27 02:51:21;;;;;;;;;;;4.80;99.90;;;;;;5092452;28;19935;-89
2022/11/27 02:53:52;;;;;;;;;;;4.80;99.90;;;;;;5099428;28;19979;-89
2022/11/27 02:56:22;;;;;;;;;;;4.80;99.90;;;;;;5104800;28;19967;-90
2022/11/27 02:58:48;;;;;;;;;;;6.10;99.90;;;;;;5099857;28;19975;-91
2022/11/27 03:01:17;;;;;;;;;;;5.80;99.90;;;;;;5100137;28;19950;-90
2022/11/27 03:03:48;;;;;;;;;;;4.60;99.90;;;;;;5117095;28;19980;-89
2022/11/27 03:06:17;;;;;;;;;;;4.90;99.90;;;;;;5097054;28;19972;-89
2022/11/27 03:08:53;;;;;;;;;;;4.90;99.90;;;;;;5092146;28;20026;-89
2022/11/27 03:11:22;;;;;;;;;;;4.60;99.90;;;;;;5092607;28;19932;-89
2022/11/27 03:13:54;;;;;;;;;;;6.30;99.90;;;;;;5076149;28;19924;-90
2022/11/27 03:16:25;;;;;;;;;;;4.00;99.90;;;;;;5091054;28;19939;-89
2022/11/27 03:19:11;;;;;;;;;;;6.10;99.90;;;;;;5083772;28;19928;-89
2022/11/27 03:21:38;;;;;;;;;;;4.90;99.90;;;;;;5076732;28;20331;-88
2022/11/27 03:24:12;;;;;;;;;;;5.70;99.90;;;;;;5076776;28;19993;-88
2022/11/27 03:26:46;;;;;;;;;;;6.10;99.90;;;;;;5093513;28;19924;-88
2022/11/27 03:29:26;;;;;;;;;;;5.60;99.90;;;;;;5077059;28;19966;-89
2022/11/27 03:31:54;;;;;;;;;;;4.90;99.90;;;;;;5092716;28;19935;-88
2022/11/27 03:34:27;;;;;;;;;;;4.90;99.90;;;;;;5075663;28;20010;-89
2022/11/27 03:37:05;;;;;;;;;;;;;;;;;;;;;
2022/11/27 03:39:35;;;;;;;;;;;4.70;99.90;;;;;;5076969;28;20358;-89
2022/11/27 03:42:19;;;;;;;;;;;5.10;99.90;;;;;;5075716;28;20283;-89
2022/11/27 03:45:12;;;;;;;;;;;5.00;99.90;;;;;;5076091;28;20290;-88
2022/11/27 03:47:50;;;;;;;;;;;4.50;99.90;;;;;;5075797;28;20001;-89
2022/11/27 03:50:21;;;;;;;;;;;5.70;99.90;;;;;;5092428;28;20020;-89
2022/11/27 03:52:52;;;;;;;;;;;5.60;99.90;;;;;;5076125;28;20268;-89
2022/11/27 03:55:37;;;;;;;;;;;4.60;99.90;;;;;;5075285;28;19924;-89
2022/11/27 03:58:10;;;;;;;;;;;5.20;99.90;;;;;;5092915;28;19924;-88
2022/11/27 04:00:45;;;;;;;;;;;5.10;99.90;;;;;;5075232;28;19924;-89
2022/11/27 04:03:29;;;;;;;;;;;5.60;99.90;;;;;;5076739;28;19950;-89
2022/11/27 04:05:57;;;;;;;;;;;4.30;99.90;;;;;;5079728;28;20293;-89
2022/11/27 04:08:28;;;;;;;;;;;5.00;99.90;;;;;;5095814;28;19928;-89
2022/11/27 04:10:54;;;;;;;;;;;4.60;99.90;;;;;;5079226;28;19924;-88
2022/11/27 04:13:22;;;;;;;;;;;5.10;99.90;;;;;;5079120;28;20308;-89
2022/11/27 04:15:53;;;;;;;;;;;5.00;99.90;;;;;;5063157;28;19924;-88
2022/11/27 04:18:19;;;;;;;;;;;4.50;99.90;;;;;;5063258;28;20109;-88
2022/11/27 04:20:47;;;;;;;;;;;5.80;99.90;;;;;;5078680;28;20364;-89
2022/11/27 04:23:22;;;;;;;;;;;6.20;99.90;;;;;;5095846;28;19924;-88
2022/11/27 04:25:51;;;;;;;;;;;5.10;99.90;;;;;;5078581;28;20360;-88
2022/11/27 04:28:17;;;;;;;;;;;5.10;99.90;;;;;;5095816;28;19933;-89
2022/11/27 04:30:51;;;;;;;;;;;5.20;99.90;;;;;;5078657;28;19932;-89
2022/11/27 04:33:19;;;;;;;;;;;5.00;99.90;;;;;;5095698;28;19973;-89
2022/11/27 04:35:45;;;;;;;;;;;5.10;99.90;;;;;;5078575;28;19924;-89
2022/11/27 04:38:11;;;;;;;;;;;6.40;99.90;;;;;;5062034;28;19924;-88
2022/11/27 04:40:39;;;;;;;;;;;6.60;99.90;;;;;;5078376;28;19924;-88
2022/11/27 04:43:04;;;;;;;;;;;5.10;99.90;;;;;;5079088;28;19924;-88
2022/11/27 04:45:30;;;;;;;;;;;5.10;99.90;;;;;;5078623;28;19930;-89
2022/11/27 04:47:56;;;;;;;;;;;5.20;99.90;;;;;;5095192;28;20023;-89
2022/11/27 04:50:21;;;;;;;;;;;5.10;99.90;;;;;;5077610;28;20026;-88
2022/11/27 04:52:50;;;;;;;;;;;6.10;99.90;;;;;;5078430;28;20244;-89
2022/11/27 04:55:25;;;;;;;;;;;5.40;99.90;;;;;;5077987;28;19930;-90
2022/11/27 04:57:53;;;;;;;;;;;5.10;99.90;;;;;;5078067;28;19931;-88
2022/11/27 05:00:21;;;;;;;;;;;5.10;99.90;;;;;;5078163;28;20344;-89
2022/11/27 05:02:56;;;;;;;;;;;5.00;99.90;;;;;;5094668;28;19924;-89
2022/11/27 05:05:24;;;;;;;;;;;5.10;99.90;;;;;;5095426;28;20027;-88
2022/11/27 05:07:52;;;;;;;;;;;6.00;99.90;;;;;;5061204;28;19997;-89
2022/11/27 05:10:18;;;;;;;;;;;4.30;99.90;;;;;;5061163;28;19975;-88
2022/11/27 05:12:51;;;;;;;;;;;5.00;99.90;;;;;;5078476;28;19985;-88
2022/11/27 05:15:28;;;;;;;;;;;5.00;99.90;;;;;;5094232;28;20008;-88
2022/11/27 05:17:56;;;;;;;;;;;5.00;99.90;;;;;;5078777;28;20311;-88
2022/11/27 05:20:24;;;;;;;;;;;5.00;99.90;;;;;;5078384;28;20287;-89
2022/11/27 05:22:52;;;;;;;;;;;4.90;99.90;;;;;;5078341;28;19967;-88
2022/11/27 05:25:28;;;;;;;;;;;5.00;99.90;;;;;;5094153;28;19924;-88
2022/11/27 05:27:53;;;;;;;;;;;5.10;99.90;;;;;;5078012;28;19935;-88
2022/11/27 05:30:21;;;;;;;;;;;5.80;99.90;;;;;;5077168;28;20292;-89
2022/11/27 05:32:50;;;;;;;;;;;5.00;99.90;;;;;;5077094;28;20375;-88
2022/11/27 05:35:23;;;;;;;;;;;4.20;99.90;;;;;;5077121;28;19924;-89
2022/11/27 05:37:49;;;;;;;;;;;4.90;99.90;;;;;;5077853;28;19950;-88
2022/11/27 05:40:16;;;;;;;;;;;5.00;99.90;;;;;;5077318;28;19928;-89
2022/11/27 05:42:42;;;;;;;;;;;4.80;99.90;;;;;;5093661;28;19924;-89
2022/11/27 05:45:08;;;;;;;;;;;6.50;99.90;;;;;;5076800;28;19931;-89
2022/11/27 05:47:44;;;;;;;;;;;;;;;;;;;;;
2022/11/27 05:50:12;;;;;;;;;;;4.80;99.90;;;;;;5094198;28;19928;-88
2022/11/27 05:52:43;;;;;;;;;;;4.90;99.90;;;;;;5077552;28;19924;-89
2022/11/27 05:55:08;;;;;;;;;;;6.10;99.90;;;;;;5076498;28;19924;-89
2022/11/27 05:57:34;;;;;;;;;;;4.90;99.90;;;;;;5060208;28;19970;-88
2022/11/27 06:00:02;;;;;;;;;;;4.90;99.90;;;;;;5094429;28;20356;-88
2022/11/27 06:02:31;;;;;;;;;;;5.00;99.90;;;;;;5060938;28;19924;-88
2022/11/27 06:04:56;;;;;;;;;;;4.90;99.90;;;;;;5076642;28;19924;-89
2022/11/27 06:07:27;;;;;;;;;;;4.90;99.90;;;;;;5077377;28;19951;-88
2022/11/27 06:09:52;;;;;;;;;;;6.20;99.90;;;;;;5059804;28;19924;-88
2022/11/27 06:12:20;;;;;;;;;;;5.90;99.90;;;;;;5094042;28;19931;-88
2022/11/27 06:14:49;;;;;;;;;;;5.00;99.90;;;;;;5076843;28;19971;-89
2022/11/27 06:17:15;;;;;;;;;;;5.00;99.90;;;;;;5075989;28;19927;-88
2022/11/27 06:19:51;;;;;;;;;;;5.90;99.90;;;;;;5059873;28;19924;-89
2022/11/27 06:22:17;;;;;;;;;;;4.90;99.90;;;;;;5077120;28;19930;-88
2022/11/27 06:24:53;;;;;;;;;;;4.90;99.90;;;;;;5060339;28;20017;-89
2022/11/27 06:27:21;;;;;;;;;;;4.80;99.90;;;;;;5058820;28;20101;-89
2022/11/27 06:29:46;;;;;;;;;;;5.70;99.90;;;;;;5075838;28;19930;-89
2022/11/27 06:32:15;;;;;;;;;;;4.90;99.90;;;;;;5076239;28;19924;-89
2022/11/27 06:34:40;;;;;;;;;;;6.00;99.90;;;;;;5075869;28;19924;-89
2022/11/27 06:37:06;;;;;;;;;;;5.90;99.90;;;;;;5076282;28;19924;-88
2022/11/27 06:39:36;;;;;;;;;;;5.00;99.90;;;;;;5093569;28;19930;-89
2022/11/27 06:42:04;;;;;;;;;;;5.00;99.90;;;;;;5076905;28;20343;-89
2022/11/27 06:44:30;;;;;;;;;;;4.00;99.90;;;;;;5075927;28;19924;-89
2022/11/27 06:46:58;;;;;;;;;;;4.90;99.90;;;;;;5075657;28;19931;-89
2022/11/27 06:49:34;;;;;;;;;;;5.00;99.90;;;;;;5075691;28;19924;-88
2022/11/27 06:52:09;;;;;;;;;;;4.90;99.90;;;;;;5060057;28;19971;-89
2022/11/27 06:54:37;;;;;;;;;;;4.90;99.90;;;;;;5060158;28;19947;-89
2022/11/27 06:57:05;;;;;;;;;;;5.00;99.90;;;;;;5075983;28;19931;-89
2022/11/27 06:59:34;;;;;;;;;;;6.20;99.90;;;;;;5076040;28;19932;-89
2022/11/27 07:02:02;;;;;;;;;;;4.90;99.90;;;;;;5059247;28;19990;-88
2022/11/27 07:04:32;;;;;;;;;;;4.20;99.90;;;;;;5075481;28;20232;-89
2022/11/27 07:07:08;;;;;;;;;;;4.90;99.90;;;;;;5093467;28;19935;-89
2022/11/27 07:09:36;;;;;;;;;;;5.00;99.90;;;;;;5058929;28;19977;-88
2022/11/27 07:12:10;;;;;;;;;;;4.90;99.90;;;;;;5092645;28;19930;-88
2022/11/27 07:14:41;;;;;;;;;;;5.60;99.90;;;;;;5075955;28;19978;-89
2022/11/27 07:17:09;;;;;;;;;;;5.60;99.90;;;;;;5059717;28;20202;-88
2022/11/27 07:19:42;;;;;;;;;;;5.10;99.90;;;;;;5075670;28;19924;-89
2022/11/27 07:22:12;;;;;;;;;;;5.70;99.90;;;;;;5075554;28;20405;-89
2022/11/27 07:24:45;;;;;;;;;;;5.00;99.90;;;;;;5059560;28;19930;-88
2022/11/27 07:27:13;;;;;;;;;;;4.90;99.90;;;;;;5076451;28;19924;-89
2022/11/27 07:29:41;;;;;;;;;;;6.50;99.90;;;;;;5076093;28;20010;-89
2022/11/27 07:32:07;;;;;;;;;;;5.00;99.90;;;;;;5076211;28;19993;-89
2022/11/27 07:34:35;;;;;;;;;;;6.20;99.90;;;;;;5075297;28;20352;-89
2022/11/27 07:37:06;;;;;;;;;;;4.90;99.90;;;;;;5080422;28;19928;-89
2022/11/27 07:39:37;;;;;;;;;;;6.00;99.90;;;;;;5088655;28;20024;-88
2022/11/27 07:42:08;;;;;;;;;;;5.00;99.90;;;;;;5104021;28;19919;-88
2022/11/27 07:44:33;;;;;;;;;;;5.80;99.90;;;;;;5085439;28;19986;-89
2022/11/27 07:46:59;;;;;;;;;;;4.70;99.90;;;;;;5110341;28;19928;-89
2022/11/27 07:49:25;;;;;;;;;;;6.10;99.90;;;;;;5083137;28;20252;-89
2022/11/27 07:51:50;;;;;;;;;;;4.80;99.90;;;;;;5099220;28;20360;-89
2022/11/27 07:54:16;;;;;;;;;;;5.00;99.90;;;;;;5080920;28;19924;-88
2022/11/27 07:56:42;;;;;;;;;;;5.00;99.90;;;;;;5099602;28;20332;-90
2022/11/27 07:59:15;;;;;;;;;;;5.10;99.90;;;;;;5080710;28;19931;-89
2022/11/27 08:01:53;;;;;;;;;;;;;;;;;;;;;
2022/11/27 08:04:19;;;;;;;;;;;5.00;99.90;;;;;;5095989;28;20014;-90
2022/11/27 08:06:57;;;;;;;;;;;5.20;99.90;;;;;;5079282;28;19982;-91
2022/11/27 08:09:27;;;;;;;;;;;6.50;99.90;;;;;;5079657;28;19928;-90
2022/11/27 08:11:53;;;;;;;;;;;5.20;99.90;;;;;;5078542;28;19924;-91
2022/11/27 08:14:22;;;;;;;;;;;6.50;99.90;;;;;;5079279;28;19973;-90
2022/11/27 08:16:52;;;;;;;;;;;5.20;99.90;;;;;;5079522;28;19931;-90
2022/11/27 08:19:22;;;;;;;;;;;5.30;99.90;;;;;;5062337;28;20284;-91
2022/11/27 08:22:08;;;;;;;;;;;5.30;99.90;;;;;;5078907;28;20007;-91
2022/11/27 08:24:36;;;;;;;;;;;5.40;99.90;;;;;;5063033;28;20274;-91
2022/11/27 08:27:01;;;;;;;;;;;5.30;99.90;;;;;;5095642;28;20076;-90
2022/11/27 08:29:27;;;;;;;;;;;5.30;99.90;;;;;;5078362;28;19966;-89
2022/11/27 08:31:53;;;;;;;;;;;6.10;99.90;;;;;;5094683;28;19924;-88
2022/11/27 08:34:19;;;;;;;;;;;5.30;99.90;;;;;;5078319;28;19928;-88
2022/11/27 08:36:49;;;;;;;;;;;6.30;99.90;;;;;;5078151;28;19924;-90
2022/11/27 08:39:35;;;;;;;;;;;5.40;99.90;;;;;;5061954;28;20383;-92
2022/11/27 08:42:06;;;;;;;;;;;5.40;99.90;;;;;;5078327;28;20279;-89
2022/11/27 08:44:32;;;;;;;;;;;4.50;99.90;;;;;;5078963;28;20255;-91
2022/11/27 08:47:03;;;;;;;;;;;5.30;99.90;;;;;;5095046;28;19973;-90
2022/11/27 08:49:37;;;;;;;;;;;5.40;99.90;;;;;;5078426;28;19928;-90
2022/11/27 08:52:08;;;;;;;;;;;5.30;99.90;;;;;;5078042;28;19924;-91
2022/11/27 08:54:34;;;;;;;;;;;5.40;99.90;;;;;;5077397;28;19924;-89
2022/11/27 08:57:02;;;;;;;;;;;5.30;99.90;;;;;;5095020;28;19974;-89
2022/11/27 08:59:28;;;;;;;;;;;5.30;99.90;;;;;;5077877;28;20261;-87
2022/11/27 09:02:15;;;;;;;;;;;5.50;99.90;;;;;;5077278;28;20027;-90
2022/11/27 09:05:01;;;;;;;;;;;;;;;;;;;;;
2022/11/27 09:07:29;;;;;;;;;;;5.40;99.90;;;;;;5080228;28;19966;-88
2022/11/27 09:09:57;;;;;;;;;;;6.00;99.90;;;;;;5077472;28;20443;-89
2022/11/27 09:12:28;;;;;;;;;;;5.40;99.90;;;;;;5078395;28;19928;-90
2022/11/27 09:15:01;;;;;;;;;;;5.90;99.90;;;;;;5062011;28;19924;-88
2022/11/27 09:17:27;;;;;;;;;;;5.40;99.90;;;;;;5094340;28;19975;-87
2022/11/27 09:19:55;;;;;;;;;;;5.40;99.90;;;;;;5060515;28;19982;-89
2022/11/27 09:22:30;;;;;;;;;;;4.60;99.90;;;;;;5094614;28;19924;-90
2022/11/27 09:25:17;;;;;;;;;;;5.40;99.90;;;;;;5061553;28;19924;-90
2022/11/27 09:27:44;;;;;;;;;;;5.50;99.90;;;;;;5093874;28;19924;-89
2022/11/27 09:30:17;;;;;;;;;;;6.30;99.90;;;;;;5077439;28;20110;-89
2022/11/27 09:32:45;;;;;;;;;;;4.60;99.90;;;;;;5081779;28;19925;-90
2022/11/27 09:35:14;;;;;;;;;;;5.40;99.90;;;;;;5079047;28;19924;-89
2022/11/27 09:38:03;;;;;;;;;;;5.40;99.90;;;;;;5076166;28;19928;-91
2022/11/27 09:40:39;;;;;;;;;;;5.70;99.90;;;;;;5077657;28;19943;-89
2022/11/27 09:43:19;;;;;;;;;;;6.40;99.90;;;;;;5060955;28;19924;-90
2022/11/27 09:46:18;;;;;;;;;;;5.70;99.90;;;;;;5061177;28;19924;-89
2022/11/27 09:48:38;;;;;;;;;;;5.50;99.90;;;;;;5089911;28;19951;-88
2022/11/27 09:51:05;;;;;;;;;;;5.50;99.90;;;;;;5094254;28;19989;-88
2022/11/27 09:53:44;;;;;;;;;;;5.50;99.90;;;;;;5093871;28;19935;-88
2022/11/27 09:56:15;;;;;;;;;;;5.50;99.90;;;;;;5093920;28;19928;-88
2022/11/27 09:58:42;;;;;;;;;;;5.90;99.90;;;;;;5076829;28;20363;-89
2022/11/27 10:01:12;;;;;;;;;;;5.50;99.90;;;;;;5093764;28;19989;-88
2022/11/27 10:03:40;;;;;;;;;;;5.50;99.90;;;;;;5076761;28;20306;-87
2022/11/27 10:06:20;;;;;;;;;;;5.50;99.90;;;;;;5094370;28;19947;-88
2022/11/27 10:08:54;;;;;;;;;;;5.50;99.90;;;;;;5093728;28;19924;-88
2022/11/27 10:11:26;;;;;;;;;;;5.50;99.90;;;;;;5093237;28;19973;-87
2022/11/27 10:14:12;;;;;;;;;;;5.50;99.90;;;;;;5076295;28;19950;-88
2022/11/27 10:16:41;;;;;;;;;;;5.80;99.90;;;;;;5075712;28;20279;-88
2022/11/27 10:19:28;;;;;;;;;;;5.50;99.90;;;;;;5076896;28;19924;-94
2022/11/27 10:21:56;;;;;;;;;;;6.30;99.90;;;;;;5094874;28;19928;-93
2022/11/27 10:24:45;;;;;;;;;;;6.00;99.90;;;;;;5077010;28;19928;-95
2022/11/27 10:27:21;;;;;;;;;;;5.50;99.90;;;;;;5077994;28;19930;-93
2022/11/27 10:29:47;;;;;;;;;;;5.50;99.90;;;;;;5094551;28;20393;-95
2022/11/27 10:32:15;;;;;;;;;;;5.50;99.90;;;;;;5077229;28;20477;-93
2022/11/27 10:34:56;;;;;;;;;;;;;;;;;;;;;
2022/11/27 10:37:27;;;;;;;;;;;5.60;99.90;;;;;;5093136;28;19947;-92
2022/11/27 10:39:57;;;;;;;;;;;5.40;99.90;;;;;;5076207;28;19970;-94
2022/11/27 10:42:39;;;;;;;;;;;6.20;99.90;;;;;;5077102;28;19924;-93
2022/11/27 10:45:06;;;;;;;;;;;5.50;99.90;;;;;;5076523;28;19924;-91
2022/11/27 10:47:39;;;;;;;;;;;5.60;99.90;;;;;;5079359;28;20386;-92
2022/11/27 10:50:18;;;;;;;;;;;4.70;99.90;;;;;;5079102;28;19989;-94
2022/11/27 10:52:53;;;;;;;;;;;5.50;99.90;;;;;;5077348;28;19923;-93
2022/11/27 10:55:38;;;;;;;;;;;5.50;99.90;;;;;;5077657;28;19924;-93
2022/11/27 11:10:46;;;;;;;;;;;5.60;99.90;;;;;;5084528;28;19924;-89
2022/11/27 11:13:15;;;;;;;;;;;5.60;99.90;;;;;;5075912;28;19942;-91
2022/11/27 11:16:06;;;;;;;;;;;5.70;99.90;;;;;;5075034;28;19924;-89
2022/11/27 11:18:40;;;;;;;;;;;6.70;99.90;;;;;;5072347;28;20355;-90
2022/11/27 11:21:27;;;;;;;;;;;;;;;;;;;;;
2022/11/27 11:24:33;;;;;;;;;;;5.70;99.90;;;;;;5092578;28;20241;-91
2022/11/27 11:33:22;;;;;;;;;;;5.70;99.90;;;;;;5092758;28;20019;-93
2022/11/27 11:36:01;;;;;;;;;;;5.70;99.90;;;;;;5076397;28;19928;-92
2022/11/27 11:38:29;;;;;;;;;;;5.70;99.90;;;;;;5075801;28;19935;-90
2022/11/27 11:44:32;;;;;;;;;;;5.80;99.90;;;;;;5003343;28;19933;-93
2022/11/27 11:46:58;;;;;;;;;;;5.80;99.90;;;;;;5068264;28;19950;-90
2022/11/27 11:49:41;;;;;;;;;;;7.20;99.90;;;;;;5074692;28;19928;-89
2022/11/27 11:52:21;;;;;;;;;;;;;;;;;;;;;
2022/11/27 11:54:53;;;;;;;;;;;5.80;99.90;;;;;;5092427;28;19930;-89
2022/11/27 12:00:23;;;;;;;;;;;5.90;99.90;;;;;;5084115;28;19987;-88
2022/11/27 12:03:11;;;;;;;;;;;7.00;99.90;;;;;;5099215;28;19984;-88
2022/11/27 12:05:56;;;;;;;;;;;5.80;99.90;;;;;;5098233;28;19912;-89
2022/11/27 12:08:37;;;;;;;;;;;5.90;99.90;;;;;;5099373;28;19968;-88
2022/11/27 12:11:11;;;;;;;;;;;5.90;99.90;;;;;;5115991;28;19912;-89
2022/11/27 12:13:40;;;;;;;;;;;5.90;99.90;;;;;;5099449;28;19971;-90
2022/11/27 12:16:25;;;;;;;;;;;5.90;99.90;;;;;;5094205;28;20285;-89
2022/11/27 12:18:54;;;;;;;;;;;5.50;99.90;;;;;;5078775;28;19963;-88
2022/11/27 12:21:37;;;;;;;;;;;5.90;99.90;;;;;;5077519;28;19928;-89
2022/11/27 12:24:15;;;;;;;;;;;5.90;99.90;;;;;;5085594;28;19932;-91
2022/11/27 12:27:00;;;;;;;;;;;5.90;99.90;;;;;;5082127;28;19952;-90
2022/11/27 12:29:28;;;;;;;;;;;5.90;99.90;;;;;;5078494;28;20333;-90
2022/11/27 12:32:29;;;;;;;;;;;5.90;99.90;;;;;;5077937;28;19924;-90
2022/11/27 12:35:01;;;;;;;;;;;5.90;99.90;;;;;;5054472;28;20403;-92
2022/11/27 12:37:36;;;;;;;;;;;5.90;99.90;;;;;;5078785;28;19931;-90
2022/11/27 12:40:04;;;;;;;;;;;6.00;99.90;;;;;;5077943;28;20273;-88
2022/11/27 12:42:41;;;;;;;;;;;6.70;99.90;;;;;;5077936;28;20022;-89
2022/11/27 12:45:18;;;;;;;;;;;6.00;99.90;;;;;;5095368;28;19966;-90
2022/11/27 12:48:17;;;;;;;;;;;;;;;;;;;;;
2022/11/27 12:50:47;;;;;;;;;;;6.10;99.90;;;;;;5090248;28;19924;-88
2022/11/27 12:54:07;;;;;;;;;;;;;;;;;;;;;
2022/11/27 12:57:06;;;;;;;;;;;6.10;99.90;;;;;;5035564;28;19925;-89
2022/11/27 12:59:42;;;;;;;;;;;6.60;99.90;;;;;;5036205;28;19932;-88
2022/11/27 13:02:39;;;;;;;;;;;6.10;99.90;;;;;;5019981;28;19978;-88
2022/11/27 13:05:16;;;;;;;;;;;6.10;99.90;;;;;;5048807;28;20017;-87
2022/11/27 13:08:03;;;;;;;;;;;6.10;99.90;;;;;;5077333;28;20030;-86
2022/11/27 13:10:41;;;;;;;;;;;6.00;99.90;;;;;;5076727;28;19939;-87
2022/11/27 13:13:12;;;;;;;;;;;6.10;99.90;;;;;;5078071;28;19928;-88
2022/11/27 13:15:43;;;;;;;;;;;5.30;99.90;;;;;;5077636;28;19928;-89
2022/11/27 13:18:45;;;;;;;;;;;6.10;99.90;;;;;;5094696;28;19928;-88
2022/11/27 13:21:21;;;;;;;;;;;6.10;99.90;;;;;;5088883;28;20313;-89
2022/11/27 13:23:54;;;;;;;;;;;6.10;99.90;;;;;;5077826;28;19924;-88
2022/11/27 13:26:23;;;;;;;;;;;6.00;99.90;;;;;;5077387;28;20294;-88
2022/11/27 13:28:56;;;;;;;;;;;6.00;99.90;;;;;;5076920;28;20402;-87
2022/11/27 13:31:34;;;;;;;;;;;6.70;99.90;;;;;;5093366;28;19924;-86
2022/11/27 13:34:15;;;;;;;;;;;6.00;99.90;;;;;;5094108;28;19951;-85
2022/11/27 13:36:43;;;;;;;;;;;6.10;99.90;;;;;;5076386;28;19930;-85
2022/11/27 13:39:38;;;;;;;;;;;5.90;99.90;;;;;;5094089;28;20369;-85
2022/11/27 13:42:10;;;;;;;;;;;6.00;99.90;;;;;;5071922;28;19924;-86
2022/11/27 13:44:38;;;;;;;;;;;5.90;99.90;;;;;;5093598;28;19924;-85
2022/11/27 13:47:06;;;;;;;;;;;5.90;99.90;;;;;;5077113;28;19924;-87
2022/11/27 13:49:35;;;;;;;;;;;6.40;99.90;;;;;;5076515;28;20236;-85
2022/11/27 13:52:09;;;;;;;;;;;5.90;99.90;;;;;;5076487;28;19927;-84
2022/11/27 13:54:35;;;;;;;;;;;5.80;99.90;;;;;;5076458;28;19930;-87
2022/11/27 13:57:13;;;;;;;;;;;5.80;99.90;;;;;;5075814;28;20019;-87
2022/11/27 13:59:38;;;;;;;;;;;5.80;99.90;;;;;;5093645;28;19928;-87
2022/11/27 14:02:05;;;;;;;;;;;5.80;99.90;;;;;;5076256;28;19924;-87
2022/11/27 14:04:31;;;;;;;;;;;5.90;99.90;;;;;;5076275;28;20322;-87
2022/11/27 14:07:09;;;;;;;;;;;5.80;99.90;;;;;;5076047;28;20354;-86
2022/11/27 14:09:37;;;;;;;;;;;5.80;99.90;;;;;;5076176;28;19932;-86
2022/11/27 14:12:23;;;;;;;;;;;5.80;99.90;;;;;;5075764;28;19991;-87
2022/11/27 14:15:15;;;;;;;;;;;6.80;99.90;;;;;;5092594;28;19928;-85
2022/11/27 14:17:42;;;;;;;;;;;5.80;99.90;;;;;;5089415;28;19975;-85
2022/11/27 14:20:19;;;;;;;;;;;5.80;99.90;;;;;;5092532;28;19974;-85
2022/11/27 14:22:49;;;;;;;;;;;5.80;99.90;;;;;;5075809;28;19967;-86
2022/11/27 14:25:23;;;;;;;;;;;5.80;99.90;;;;;;5075492;28;19925;-90
2022/11/27 14:27:56;;;;;;;;;;;5.80;99.90;;;;;;5092920;28;19924;-86
2022/11/27 14:30:23;;;;;;;;;;;5.80;99.90;;;;;;5092654;28;19924;-90
2022/11/27 14:32:49;;;;;;;;;;;5.90;99.90;;;;;;5092399;28;20021;-86
2022/11/27 14:35:19;;;;;;;;;;;5.80;99.90;;;;;;5075620;28;19974;-87
2022/11/27 14:37:45;;;;;;;;;;;5.70;99.90;;;;;;5075974;28;19975;-86
2022/11/27 14:40:13;;;;;;;;;;;5.80;99.90;;;;;;5076122;28;19973;-85
2022/11/27 14:42:38;;;;;;;;;;;5.70;99.90;;;;;;5075598;28;19924;-85
2022/11/27 14:45:11;;;;;;;;;;;6.00;99.90;;;;;;5076379;28;19924;-85
2022/11/27 14:47:44;;;;;;;;;;;5.70;99.90;;;;;;5076064;28;19924;-86
2022/11/27 14:50:12;;;;;;;;;;;5.70;99.90;;;;;;5092064;28;19928;-87
2022/11/27 14:52:38;;;;;;;;;;;5.70;99.90;;;;;;5092475;28;19931;-85
2022/11/27 14:55:06;;;;;;;;;;;5.70;99.90;;;;;;5092315;28;20078;-85
2022/11/27 14:57:32;;;;;;;;;;;5.70;99.90;;;;;;5074516;28;19924;-85
2022/11/27 15:00:13;;;;;;;;;;;5.60;99.90;;;;;;5059553;28;19928;-87
2022/11/27 15:02:39;;;;;;;;;;;5.60;99.90;;;;;;5092931;28;19973;-87
2022/11/27 15:05:05;;;;;;;;;;;6.70;99.90;;;;;;5075066;28;20352;-87
2022/11/27 15:07:32;;;;;;;;;;;5.60;99.90;;;;;;5091850;28;20359;-86
2022/11/27 15:09:58;;;;;;;;;;;5.70;99.90;;;;;;5059109;28;20328;-87
2022/11/27 15:12:28;;;;;;;;;;;5.90;99.90;;;;;;5075279;28;20014;-86
2022/11/27 15:14:53;;;;;;;;;;;5.60;99.90;;;;;;5075075;28;19924;-85
2022/11/27 15:17:23;;;;;;;;;;;5.60;99.90;;;;;;5091844;28;20330;-85
2022/11/27 15:19:48;;;;;;;;;;;6.60;99.90;;;;;;5091791;28;20028;-87
2022/11/27 15:22:17;;;;;;;;;;;5.60;99.90;;;;;;5091781;28;20390;-85
2022/11/27 15:24:43;;;;;;;;;;;5.60;99.90;;;;;;5092181;28;20026;-87
2022/11/27 15:27:15;;;;;;;;;;;5.60;99.90;;;;;;5075658;28;20383;-88
2022/11/27 15:29:44;;;;;;;;;;;5.60;99.90;;;;;;5074873;28;20283;-87
2022/11/27 15:32:17;;;;;;;;;;;5.60;99.90;;;;;;5092310;28;19931;-88